createdAt,value
2022-12-19T00:02:55.228Z,27.55
2022-12-19T00:07:59.050Z,29.98
2022-12-19T00:13:07.998Z,31.75
2022-12-19T00:18:13.094Z,29.20
2022-12-19T00:23:16.860Z,30.15
2022-12-19T00:28:20.626Z,33.08
2022-12-19T00:33:26.441Z,31.77
2022-12-19T00:38:30.635Z,29.90
2022-12-19T00:43:34.327Z,30.52
2022-12-19T00:48:41.826Z,31.33
2022-12-19T00:53:47.384Z,29.87
2022-12-19T00:58:53.263Z,27.98
2022-12-19T01:04:27.177Z,28.75
2022-12-19T01:09:23.785Z,26.42
2022-12-19T01:14:27.456Z,30.00
2022-12-19T01:19:32.488Z,30.60
2022-12-19T01:24:36.214Z,28.95
2022-12-19T01:29:51.783Z,30.33
2022-12-19T01:34:58.057Z,29.50
2022-12-19T01:40:01.762Z,30.48
2022-12-19T01:45:22.563Z,29.10
2022-12-19T01:50:33.225Z,26.00
2022-12-19T01:55:38.308Z,29.95
2022-12-19T02:00:44.271Z,29.63
2022-12-19T02:05:50.431Z,28.85
2022-12-19T02:10:55.273Z,23.47
2022-12-19T02:16:07.430Z,30.50
2022-12-19T02:21:30.009Z,26.90
2022-12-19T02:27:07.054Z,27.42
2022-12-19T02:32:20.698Z,29.12
2022-12-19T02:37:29.064Z,29.85
2022-12-19T02:42:37.333Z,28.08
2022-12-19T02:47:43.406Z,27.15
2022-12-19T02:52:49.428Z,29.35
2022-12-19T02:58:38.975Z,28.05
2022-12-19T03:03:51.944Z,27.73
2022-12-19T03:09:02.429Z,29.12
2022-12-19T03:14:09.128Z,26.60
2022-12-19T03:19:15.709Z,23.45
2022-12-19T03:24:20.756Z,24.30
2022-12-19T03:29:30.420Z,23.35
2022-12-19T03:34:41.546Z,20.30
2022-12-19T03:39:50.905Z,22.35
2022-12-19T03:44:56.695Z,20.12
2022-12-19T03:50:02.436Z,21.40
2022-12-19T03:55:12.329Z,21.55
2022-12-19T04:00:18.796Z,22.70
2022-12-19T04:05:26.588Z,21.10
2022-12-19T04:10:31.311Z,21.70
2022-12-19T04:15:43.346Z,17.83
2022-12-19T04:20:56.147Z,21.12
2022-12-19T04:26:03.691Z,22.10
2022-12-19T04:31:08.925Z,14.45
2022-12-19T04:36:14.095Z,18.85
2022-12-19T04:41:17.741Z,19.55
2022-12-19T04:46:21.448Z,18.42
2022-12-19T04:51:26.550Z,20.45
2022-12-19T04:56:30.201Z,19.05
2022-12-19T05:01:34.002Z,19.75
2022-12-19T05:06:39.101Z,17.25
2022-12-19T05:11:42.879Z,18.45
2022-12-19T05:16:46.835Z,19.33
2022-12-19T05:21:51.859Z,20.42
2022-12-19T05:26:55.566Z,17.73
2022-12-19T05:31:59.324Z,19.73
2022-12-19T05:37:04.633Z,20.35
2022-12-19T05:42:12.115Z,18.40
2022-12-19T05:47:16.256Z,17.23
2022-12-19T05:52:21.455Z,18.73
2022-12-19T05:57:25.213Z,17.08
2022-12-19T06:02:33.788Z,17.50
2022-12-19T06:07:38.938Z,17.77
2022-12-19T06:12:42.717Z,17.17
2022-12-19T06:17:46.621Z,15.55
2022-12-19T06:22:51.676Z,14.80
2022-12-19T06:27:55.410Z,14.82
2022-12-19T06:32:59.141Z,16.65
2022-12-19T06:38:04.246Z,15.55
2022-12-19T06:43:07.946Z,12.68
2022-12-19T06:48:11.619Z,14.55
2022-12-19T06:53:16.718Z,15.05
2022-12-19T06:58:24.356Z,14.98
2022-12-19T07:03:32.746Z,15.02
2022-12-19T07:08:37.797Z,15.73
2022-12-19T07:13:41.485Z,14.32
2022-12-19T07:18:45.180Z,15.25
2022-12-19T07:23:50.361Z,14.52
2022-12-19T07:28:54.623Z,13.85
2022-12-19T07:33:58.956Z,13.32
2022-12-19T07:39:04.795Z,10.63
2022-12-19T07:44:09.258Z,13.75
2022-12-19T07:49:14.247Z,12.98
2022-12-19T07:54:22.069Z,14.25
2022-12-19T07:59:30.354Z,12.35
2022-12-19T08:04:36.587Z,11.80
2022-12-19T08:09:41.674Z,12.77
2022-12-19T08:14:45.401Z,12.25
2022-12-19T08:19:49.144Z,12.18
2022-12-19T08:24:54.245Z,11.77
2022-12-19T08:29:57.907Z,12.50
2022-12-19T08:35:01.669Z,11.93
2022-12-19T08:40:08.258Z,10.93
2022-12-19T08:45:12.112Z,9.88
2022-12-19T08:50:15.867Z,12.35
2022-12-19T08:55:21.705Z,12.68
2022-12-19T09:00:25.629Z,9.35
2022-12-19T09:06:05.439Z,12.52
2022-12-19T09:11:00.715Z,11.40
2022-12-19T09:16:06.456Z,11.55
2022-12-19T09:21:10.483Z,11.77
2022-12-19T09:26:15.492Z,11.57
2022-12-19T09:31:21.383Z,11.15
2022-12-19T09:36:26.974Z,11.55
2022-12-19T09:41:45.744Z,10.77
2022-12-19T09:46:52.298Z,10.23
2022-12-19T09:52:02.159Z,10.20
2022-12-19T09:57:15.498Z,8.70
2022-12-19T10:02:28.243Z,10.23
2022-12-19T10:07:57.823Z,9.05
2022-12-19T10:13:14.698Z,8.07
2022-12-19T10:18:36.218Z,8.27
2022-12-19T10:23:58.776Z,7.95
2022-12-19T10:29:20.669Z,8.07
2022-12-19T10:34:29.472Z,8.30
2022-12-19T10:39:38.162Z,8.77
2022-12-19T10:44:45.088Z,8.75
2022-12-19T10:49:49.383Z,8.18
2022-12-19T10:54:53.167Z,9.98
2022-12-19T11:00:00.611Z,8.40
2022-12-19T11:05:05.658Z,8.53
2022-12-19T11:11:38.605Z,8.43
2022-12-19T11:23:04.598Z,7.65
2022-12-19T11:29:14.881Z,7.55
2022-12-19T11:30:48.671Z,7.53
2022-12-19T11:32:47.076Z,7.70
2022-12-19T11:37:56.010Z,7.28
2022-12-19T11:43:42.664Z,5.90
2022-12-19T11:48:39.770Z,6.62
2022-12-19T11:53:52.108Z,7.30
2022-12-19T11:58:59.128Z,6.10
2022-12-19T12:04:46.244Z,6.87
2022-12-19T12:15:57.708Z,6.25
2022-12-19T12:28:03.522Z,5.78
2022-12-19T12:31:17.476Z,5.80
2022-12-19T12:31:41.879Z,6.37
2022-12-19T12:35:40.501Z,5.90
2022-12-19T12:43:23.424Z,3.92
2022-12-19T12:48:31.250Z,5.03
2022-12-19T12:53:39.483Z,5.00
2022-12-19T12:58:44.825Z,4.15
2022-12-19T13:03:59.861Z,3.62
2022-12-19T13:09:21.207Z,3.83
2022-12-19T13:14:49.926Z,4.20
2022-12-19T13:19:56.521Z,4.37
2022-12-19T13:25:02.270Z,5.35
2022-12-19T13:30:17.327Z,4.25
2022-12-19T13:39:24.151Z,3.85
2022-12-19T13:41:02.058Z,3.97
2022-12-19T13:46:19.371Z,3.65
2022-12-19T13:51:23.543Z,4.00
2022-12-19T13:56:31.884Z,3.60
2022-12-19T14:06:42.557Z,3.17
2022-12-19T14:12:28.197Z,3.22
2022-12-19T14:17:15.066Z,3.47
2022-12-19T14:22:25.801Z,3.53
2022-12-19T14:28:23.522Z,3.00
2022-12-19T14:33:46.160Z,2.70
2022-12-19T14:39:25.839Z,3.25
2022-12-19T14:53:17.516Z,3.35
2022-12-19T14:54:16.319Z,3.12
2022-12-19T14:56:08.775Z,3.20
2022-12-19T15:01:09.549Z,3.72
2022-12-19T15:07:05.297Z,3.00
2022-12-19T15:13:30.451Z,2.60
2022-12-19T15:17:28.448Z,3.05
2022-12-19T15:22:32.151Z,3.58
2022-12-19T15:27:36.088Z,2.92
2022-12-19T15:32:41.445Z,3.72
2022-12-19T15:37:45.737Z,2.92
2022-12-19T15:42:54.948Z,2.83
2022-12-19T15:48:00.288Z,3.25
2022-12-19T15:53:24.412Z,3.55
2022-12-19T15:58:35.711Z,3.35
2022-12-19T16:03:41.098Z,3.35
2022-12-19T16:08:45.069Z,3.42
2022-12-19T16:13:52.809Z,3.25
2022-12-19T16:18:58.523Z,3.00
2022-12-19T16:24:02.275Z,2.92
2022-12-19T16:29:06.621Z,2.97
2022-12-19T16:34:15.888Z,3.37
2022-12-19T16:39:19.815Z,3.00
2022-12-19T16:44:25.565Z,3.53
2022-12-19T16:49:32.097Z,3.67
2022-12-19T16:54:35.877Z,2.62
2022-12-19T16:59:41.318Z,3.60
2022-12-19T17:04:50.505Z,3.92
2022-12-19T17:09:57.556Z,4.55
2022-12-19T17:15:01.382Z,3.85
2022-12-19T17:20:10.778Z,3.97
2022-12-19T17:25:18.831Z,3.95
2022-12-19T17:30:23.429Z,3.90
2022-12-19T17:35:32.756Z,3.17
2022-12-19T17:40:36.773Z,4.07
2022-12-19T17:45:41.451Z,3.62
2022-12-19T17:50:46.692Z,3.80
2022-12-19T17:55:50.688Z,3.67
2022-12-19T18:00:54.671Z,3.50
2022-12-19T18:05:59.887Z,3.85
2022-12-19T18:11:07.573Z,3.85
2022-12-19T18:16:14.284Z,3.97
2022-12-19T18:21:22.368Z,3.80
2022-12-19T18:26:26.079Z,4.10
2022-12-19T18:31:30.390Z,4.20
2022-12-19T18:36:40.858Z,4.18
2022-12-19T18:41:44.594Z,3.65
2022-12-19T18:46:50.430Z,4.15
2022-12-19T18:51:55.550Z,3.97
2022-12-19T18:56:59.670Z,4.60
2022-12-19T19:02:04.894Z,4.30
2022-12-19T19:07:12.054Z,4.25
2022-12-19T19:12:15.753Z,4.35
2022-12-19T19:17:26.124Z,4.10
2022-12-19T19:22:31.171Z,4.53
2022-12-19T19:27:35.104Z,4.10
2022-12-19T19:32:45.227Z,3.90
2022-12-19T19:37:52.325Z,4.40
2022-12-19T19:42:56.246Z,4.60
2022-12-19T19:48:03.987Z,4.47
2022-12-19T19:53:09.233Z,4.00
2022-12-19T19:58:13.027Z,4.28
2022-12-19T20:03:22.464Z,4.30
2022-12-19T20:08:33.663Z,4.60
2022-12-19T20:13:42.565Z,4.37
2022-12-19T20:18:49.868Z,4.45
2022-12-19T20:23:54.961Z,4.68
2022-12-19T20:28:58.848Z,4.97
2022-12-19T20:34:02.595Z,4.00
2022-12-19T20:39:07.937Z,4.28
2022-12-19T20:44:11.818Z,5.00
2022-12-19T20:49:15.535Z,4.57
2022-12-19T20:54:21.043Z,5.25
2022-12-19T20:59:24.710Z,5.50
2022-12-19T21:04:28.807Z,4.68
2022-12-19T21:09:34.250Z,4.28
2022-12-19T21:14:37.954Z,4.50
2022-12-19T21:19:41.827Z,4.40
2022-12-19T21:24:47.064Z,4.82
2022-12-19T21:29:50.801Z,4.53
2022-12-19T21:34:54.669Z,4.10
2022-12-19T21:39:59.723Z,4.60
2022-12-19T21:45:03.392Z,4.82
2022-12-19T21:50:09.171Z,4.10
2022-12-19T21:55:14.229Z,3.87
2022-12-19T22:00:18.505Z,4.03
2022-12-19T22:05:22.217Z,4.28
2022-12-19T22:10:27.259Z,4.37
2022-12-19T22:15:31.224Z,4.05
2022-12-19T22:20:34.991Z,4.70
2022-12-19T22:25:40.097Z,4.25
2022-12-19T22:30:43.843Z,3.87
2022-12-19T22:35:47.582Z,3.40
2022-12-19T22:40:52.958Z,3.80
2022-12-19T22:45:56.747Z,3.50
2022-12-19T22:51:00.576Z,3.78
2022-12-19T22:56:08.168Z,3.95
2022-12-19T23:01:16.776Z,3.63
2022-12-19T23:06:21.389Z,3.65
2022-12-19T23:11:28.878Z,2.90
2022-12-19T23:16:32.789Z,3.23
2022-12-19T23:21:37.598Z,3.50
2022-12-19T23:26:43.052Z,3.20
2022-12-19T23:31:48.269Z,3.85
2022-12-19T23:42:17.050Z,3.25
2022-12-19T23:47:20.982Z,3.35
2022-12-19T23:52:24.721Z,3.25
2022-12-19T23:57:29.914Z,3.22
